Halifax (YHZ/CYHZ)

Map

Destinations

Information

Location
Halifax, Nova Scotia, Canada
Local Time
19:42 / 7:42 pm
GMT Time
23:42 / 11:42 pm
Gates
5
No FAA reported delays
METAR CYHZ 182300Z 33006KT 15SM BKN015 M02/M03 A2973 RMK SC6 SLP076
TAF TAF CYHZ 182038Z 1821/1918 29008KT 6SM -SHSN OVC015 TEMPO 1821/1902 P6SM NSW SCT015 BKN025 FM190200 34008KT P6SM SCT015 FM191500 33010KT P6SM BKN180 RMK NXT FCST BY 190000Z